sensor_id;sensor_type;location;lat;lon;timestamp;pressure;altitude;pressure_sealevel;temperature;humidity
79316;BME280;68779;50.036;19.964;2023-08-21T00:12:03;102185.32;;;23.49;69.96
79316;BME280;68779;50.036;19.964;2023-08-21T00:42:19;102190.74;;;23.57;70.13
79316;BME280;68779;50.036;19.964;2023-08-21T01:12:47;102188.04;;;23.14;70.52
79316;BME280;68779;50.036;19.964;2023-08-21T01:43:09;102177.52;;;23.09;71.02
79316;BME280;68779;50.036;19.964;2023-08-21T02:13:24;102185.20;;;22.92;72.05
79316;BME280;68779;50.036;19.964;2023-08-21T02:43:39;102167.66;;;22.48;72.29
79316;BME280;68779;50.036;19.964;2023-08-21T03:13:54;102164.86;;;22.71;71.12
79316;BME280;68779;50.036;19.964;2023-08-21T03:44:08;102163.27;;;22.02;73.48
79316;BME280;68779;50.036;19.964;2023-08-21T04:14:22;102155.78;;;22.25;72.37
79316;BME280;68779;50.036;19.964;2023-08-21T04:44:36;102173.40;;;22.47;71.88
79316;BME280;68779;50.036;19.964;2023-08-21T05:14:51;102179.84;;;23.06;69.87
79316;BME280;68779;50.036;19.964;2023-08-21T06:01:58;102198.51;;;24.25;66.54
79316;BME280;68779;50.036;19.964;2023-08-21T06:32:15;102182.36;;;25.58;62.77
79316;BME280;68779;50.036;19.964;2023-08-21T07:02:28;102203.96;;;26.36;62.50
79316;BME280;68779;50.036;19.964;2023-08-21T07:32:48;102202.86;;;26.63;62.95
79316;BME280;68779;50.036;19.964;2023-08-21T08:03:05;102221.96;;;27.50;58.75
79316;BME280;68779;50.036;19.964;2023-08-21T08:33:21;102253.35;;;28.27;58.07
79316;BME280;68779;50.036;19.964;2023-08-21T09:03:35;102266.90;;;29.04;54.28
79316;BME280;68779;50.036;19.964;2023-08-21T09:33:58;102258.08;;;28.52;56.18
79316;BME280;68779;50.036;19.964;2023-08-21T10:04:20;102246.67;;;28.53;56.52
79316;BME280;68779;50.036;19.964;2023-08-21T10:34:37;102209.41;;;29.98;52.45
79316;BME280;68779;50.036;19.964;2023-08-21T11:04:53;102194.41;;;30.33;49.57
79316;BME280;68779;50.036;19.964;2023-08-21T11:35:07;102178.43;;;31.71;46.61
79316;BME280;68779;50.036;19.964;2023-08-21T12:05:22;102140.74;;;34.39;40.91
79316;BME280;68779;50.036;19.964;2023-08-21T12:35:38;102140.62;;;32.46;45.10
79316;BME280;68779;50.036;19.964;2023-08-21T13:05:53;102135.54;;;30.96;49.17
79316;BME280;68779;50.036;19.964;2023-08-21T13:36:07;102101.41;;;32.99;44.26
79316;BME280;68779;50.036;19.964;2023-08-21T14:06:21;102057.02;;;36.32;37.21
79316;BME280;68779;50.036;19.964;2023-08-21T14:36:37;102027.88;;;37.01;35.67
79316;BME280;68779;50.036;19.964;2023-08-21T15:06:51;102015.84;;;33.10;42.95
79316;BME280;68779;50.036;19.964;2023-08-21T15:37:06;102020.48;;;32.34;43.89
79316;BME280;68779;50.036;19.964;2023-08-21T16:07:26;101998.13;;;31.56;48.08
79316;BME280;68779;50.036;19.964;2023-08-21T16:37:39;101995.66;;;30.87;49.50
79316;BME280;68779;50.036;19.964;2023-08-21T17:07:55;102000.91;;;29.74;53.98
79316;BME280;68779;50.036;19.964;2023-08-21T17:38:11;102041.55;;;28.46;58.62
79316;BME280;68779;50.036;19.964;2023-08-21T18:08:28;102089.12;;;28.28;59.40
79316;BME280;68779;50.036;19.964;2023-08-21T18:38:46;102083.50;;;28.10;60.20
79316;BME280;68779;50.036;19.964;2023-08-21T19:09:00;102115.05;;;27.61;62.03
79316;BME280;68779;50.036;19.964;2023-08-21T19:39:16;102138.48;;;27.60;61.25
79316;BME280;68779;50.036;19.964;2023-08-21T20:09:34;102149.59;;;26.65;64.10
79316;BME280;68779;50.036;19.964;2023-08-21T20:39:49;102166.20;;;26.27;64.67
79316;BME280;68779;50.036;19.964;2023-08-21T21:10:06;102171.10;;;25.99;66.05
79316;BME280;68779;50.036;19.964;2023-08-21T21:40:22;102201.78;;;25.38;67.91
79316;BME280;68779;50.036;19.964;2023-08-21T22:41:10;102202.16;;;24.81;69.69
79316;BME280;68779;50.036;19.964;2023-08-21T23:11:25;102199.64;;;24.65;70.17
79316;BME280;68779;50.036;19.964;2023-08-21T23:41:44;102188.63;;;24.02;72.39
